Time;durP1;ratioP1;P1;durP2;ratioP2;P2;SDS_P1;SDS_P2;PMS_P1;PMS_P2;Temp;Humidity;BMP_temperature;BMP_pressure;BME280_temperature;BME280_humidity;BME280_pressure;Samples;Min_cycle;Max_cycle;Signal;HPM_P1;HPM_P2
2023/04/22 00:01:38;;;;;;;;;;;;;;;13.58;95.61;99367.56;5089042;28;19916;-56
2023/04/22 00:04:03;;;;;;;;;;;;;;;13.56;95.80;99374.84;5090082;28;19916;-56
2023/04/22 00:06:28;;;;;;;;;;;;;;;13.54;95.89;99366.03;5089231;28;19912;-57
2023/04/22 00:08:53;;;;;;;;;;;;;;;13.52;95.77;99365.25;5088044;28;20259;-57
2023/04/22 00:11:19;;;;;;;;;;;;;;;13.48;95.90;99358.34;5088898;28;19920;-57
2023/04/22 00:13:45;;;;;;;;;;;;;;;13.46;95.95;99350.41;5088967;28;19920;-57
2023/04/22 00:16:10;;;;;;;;;;;;;;;13.44;96.04;99355.00;5088503;28;19927;-56
2023/04/22 00:18:35;;;;;;;;;;;;;;;13.39;96.23;99348.16;5088013;28;19920;-56
2023/04/22 00:21:01;;;;;;;;;;;;;;;13.31;96.41;99345.06;5089543;28;19939;-56
2023/04/22 00:23:26;;;;;;;;;;;;;;;13.26;96.41;99347.13;5088952;28;20383;-57
2023/04/22 00:25:52;;;;;;;;;;;;;;;13.26;96.77;99353.31;5089967;28;19928;-57
2023/04/22 00:28:17;;;;;;;;;;;;;;;13.24;96.83;99353.38;5089230;28;19912;-56
2023/04/22 00:30:42;;;;;;;;;;;;;;;13.20;97.24;99359.84;5089820;28;19916;-57
2023/04/22 00:33:08;;;;;;;;;;;;;;;13.20;97.55;99354.50;5090030;28;19912;-56
2023/04/22 00:35:34;;;;;;;;;;;;;;;13.16;97.29;99360.94;5089373;28;19937;-57
2023/04/22 00:37:59;;;;;;;;;;;;;;;13.13;97.19;99363.78;5090215;28;20410;-56
2023/04/22 00:40:24;;;;;;;;;;;;;;;13.09;97.44;99366.69;5090057;28;19920;-56
2023/04/22 00:42:50;;;;;;;;;;;;;;;13.05;97.79;99376.69;5089089;28;20406;-56
2023/04/22 00:45:16;;;;;;;;;;;;;;;12.98;98.09;99375.22;5092281;28;19911;-56
2023/04/22 00:47:43;;;;;;;;;;;;;;;12.95;98.02;99374.53;5089425;28;19947;-56
2023/04/22 00:50:08;;;;;;;;;;;;;;;12.95;98.15;99370.06;5089858;28;19912;-56
2023/04/22 00:52:33;;;;;;;;;;;;;;;12.92;98.23;99364.88;5089826;28;19920;-56
2023/04/22 00:54:59;;;;;;;;;;;;;;;12.92;98.61;99372.03;5088924;28;19916;-56
2023/04/22 00:57:25;;;;;;;;;;;;;;;12.86;98.36;99370.56;5089469;28;19920;-56
2023/04/22 00:59:51;;;;;;;;;;;;;;;12.81;98.55;99372.59;5088729;28;19926;-56
2023/04/22 01:02:17;;;;;;;;;;;;;;;12.78;98.46;99366.56;5089597;28;19999;-56
2023/04/22 01:04:42;;;;;;;;;;;;;;;12.71;99.00;99382.00;5088522;28;20455;-57
2023/04/22 01:07:07;;;;;;;;;;;;;;;12.65;98.95;99376.13;5073998;28;19924;-56
2023/04/22 01:09:33;;;;;;;;;;;;;;;12.60;99.04;99378.16;5092491;28;20012;-56
2023/04/22 01:12:00;;;;;;;;;;;;;;;12.56;99.51;99377.47;5091965;28;19920;-56
2023/04/22 01:14:25;;;;;;;;;;;;;;;12.50;99.35;99374.25;5092991;28;20321;-56
2023/04/22 01:16:52;;;;;;;;;;;;;;;12.44;99.50;99378.06;5095491;28;19922;-57
2023/04/22 01:19:18;;;;;;;;;;;;;;;12.41;99.52;99374.69;5092179;28;19920;-56
2023/04/22 01:21:44;;;;;;;;;;;;;;;12.37;99.65;99371.31;5092995;28;19927;-56
2023/04/22 01:24:09;;;;;;;;;;;;;;;12.38;99.56;99366.84;5092828;28;19965;-56
2023/04/22 01:26:35;;;;;;;;;;;;;;;12.33;100.00;99375.09;5091960;28;19962;-56
2023/04/22 01:29:00;;;;;;;;;;;;;;;12.26;100.00;99372.78;5092346;28;19916;-56
2023/04/22 01:31:26;;;;;;;;;;;;;;;12.24;100.00;99374.69;5093086;28;19991;-56
2023/04/22 01:33:51;;;;;;;;;;;;;;;12.21;99.27;99380.16;5091532;28;20579;-56
2023/04/22 01:36:17;;;;;;;;;;;;;;;12.16;100.00;99372.38;5092646;28;19916;-57
2023/04/22 01:38:42;;;;;;;;;;;;;;;12.18;99.69;99377.63;5092417;28;20481;-56
2023/04/22 01:41:07;;;;;;;;;;;;;;;12.18;100.00;99382.97;5092699;28;19912;-56
2023/04/22 01:43:33;;;;;;;;;;;;;;;12.16;99.97;99383.03;5091295;28;19916;-56
2023/04/22 01:46:01;;;;;;;;;;;;;;;12.14;100.00;99374.25;5091687;28;20454;-56
2023/04/22 01:48:26;;;;;;;;;;;;;;;12.12;100.00;99381.47;5091185;28;19955;-56
2023/04/22 01:50:52;;;;;;;;;;;;;;;12.06;100.00;99381.75;5089982;28;19920;-56
2023/04/22 01:53:17;;;;;;;;;;;;;;;12.03;100.00;99365.03;5090578;28;20010;-56
2023/04/22 01:55:43;;;;;;;;;;;;;;;12.03;100.00;99384.56;5092013;28;19927;-56
2023/04/22 01:58:08;;;;;;;;;;;;;;;12.03;100.00;99381.91;5092128;28;19916;-56
2023/04/22 02:00:33;;;;;;;;;;;;;;;12.04;100.00;99390.78;5091591;28;19981;-56
2023/04/22 02:02:59;;;;;;;;;;;;;;;11.97;100.00;99392.88;5090863;28;20387;-56
2023/04/22 02:05:24;;;;;;;;;;;;;;;11.93;100.00;99396.63;5091441;28;20164;-57
2023/04/22 02:07:53;;;;;;;;;;;;;;;11.89;100.00;99395.06;5091990;28;19920;-57
2023/04/22 02:10:18;;;;;;;;;;;;;;;11.81;100.00;99403.41;5091787;28;20380;-56
2023/04/22 02:12:43;;;;;;;;;;;;;;;11.76;100.00;99404.56;5090355;28;19928;-56
2023/04/22 02:15:09;;;;;;;;;;;;;;;11.73;100.00;99399.34;5089982;28;19923;-56
2023/04/22 02:17:34;;;;;;;;;;;;;;;11.70;100.00;99391.50;5089573;28;20036;-56
2023/04/22 02:20:01;;;;;;;;;;;;;;;11.67;100.00;99399.66;5089152;28;20388;-56
2023/04/22 02:22:28;;;;;;;;;;;;;;;11.64;100.00;99389.16;5090358;28;19912;-56
2023/04/22 02:24:53;;;;;;;;;;;;;;;11.65;100.00;99405.06;5089921;28;19935;-57
2023/04/22 02:27:18;;;;;;;;;;;;;;;11.63;100.00;99406.91;5072457;28;20060;-56
2023/04/22 02:29:44;;;;;;;;;;;;;;;11.67;100.00;99404.97;5091302;28;19912;-56
2023/04/22 02:32:09;;;;;;;;;;;;;;;11.64;100.00;99399.81;5091467;28;19966;-57
2023/04/22 02:34:35;;;;;;;;;;;;;;;11.60;100.00;99404.38;5090603;28;19926;-56
2023/04/22 02:37:00;;;;;;;;;;;;;;;11.56;100.00;99413.47;5091631;28;19916;-56
2023/04/22 02:39:25;;;;;;;;;;;;;;;11.52;100.00;99413.66;5091606;28;19918;-56
2023/04/22 02:41:51;;;;;;;;;;;;;;;11.49;100.00;99427.09;5091330;28;20307;-56
2023/04/22 02:44:16;;;;;;;;;;;;;;;11.42;100.00;99418.53;5090499;28;19920;-57
2023/04/22 02:46:41;;;;;;;;;;;;;;;11.36;100.00;99415.28;5091331;28;19923;-56
2023/04/22 02:49:06;;;;;;;;;;;;;;;11.37;100.00;99411.66;5090421;28;19973;-56
2023/04/22 02:51:32;;;;;;;;;;;;;;;11.37;100.00;99401.03;5091589;28;20001;-56
2023/04/22 02:53:57;;;;;;;;;;;;;;;11.32;100.00;99413.69;5096542;28;19926;-56
2023/04/22 02:56:22;;;;;;;;;;;;;;;11.29;100.00;99414.69;5090176;28;20395;-56
2023/04/22 02:58:47;;;;;;;;;;;;;;;11.30;100.00;99427.06;5090877;28;19920;-57
2023/04/22 03:01:13;;;;;;;;;;;;;;;11.31;100.00;99433.25;5081079;28;19964;-57
2023/04/22 03:03:38;;;;;;;;;;;;;;;11.28;100.00;99433.41;5067611;28;19916;-56
2023/04/22 03:06:03;;;;;;;;;;;;;;;11.24;100.00;99426.47;5087468;28;19919;-57
2023/04/22 03:08:28;;;;;;;;;;;;;;;11.20;100.00;99422.25;5086725;28;20328;-57
2023/04/22 03:10:54;;;;;;;;;;;;;;;11.15;100.00;99416.25;5052613;28;19916;-57
2023/04/22 03:13:19;;;;;;;;;;;;;;;11.12;100.00;99411.06;5070386;28;19920;-57
2023/04/22 03:15:44;;;;;;;;;;;;;;;11.08;100.00;99412.13;5070647;28;19913;-56
2023/04/22 03:18:09;;;;;;;;;;;;;;;11.05;100.00;99410.47;5073120;28;19920;-57
2023/04/22 03:20:35;;;;;;;;;;;;;;;11.08;100.00;99418.31;5090676;28;20302;-57
2023/04/22 03:23:00;;;;;;;;;;;;;;;11.13;100.00;99423.44;5090467;28;20038;-57
2023/04/22 03:25:26;;;;;;;;;;;;;;;11.10;100.00;99434.22;5087255;28;19927;-57
2023/04/22 03:27:51;;;;;;;;;;;;;;;11.06;100.00;99427.28;5078385;28;19996;-57
2023/04/22 03:30:16;;;;;;;;;;;;;;;11.02;100.00;99434.53;5069965;28;19960;-57
2023/04/22 03:32:42;;;;;;;;;;;;;;;10.99;100.00;99426.69;5070174;28;19971;-56
2023/04/22 03:35:07;;;;;;;;;;;;;;;10.97;100.00;99420.56;5052516;28;19927;-57
2023/04/22 03:37:32;;;;;;;;;;;;;;;10.94;100.00;99412.72;5069285;28;20465;-57
2023/04/22 03:39:57;;;;;;;;;;;;;;;10.88;100.00;99412.13;5069869;28;19923;-57
2023/04/22 03:42:23;;;;;;;;;;;;;;;10.80;100.00;99409.81;5069718;28;19947;-58
2023/04/22 03:44:48;;;;;;;;;;;;;;;10.79;100.00;99415.19;5069316;28;20376;-56
2023/04/22 03:47:13;;;;;;;;;;;;;;;10.80;100.00;99419.56;5069871;28;20074;-57
2023/04/22 03:49:39;;;;;;;;;;;;;;;10.84;100.00;99421.19;5069572;28;19916;-57
2023/04/22 03:52:04;;;;;;;;;;;;;;;10.81;100.00;99426.66;5069117;28;19925;-56
2023/04/22 03:54:29;;;;;;;;;;;;;;;10.76;100.00;99418.00;5068778;28;19927;-56
2023/04/22 03:56:55;;;;;;;;;;;;;;;10.76;100.00;99412.69;5069761;28;19928;-57
2023/04/22 03:59:20;;;;;;;;;;;;;;;10.70;100.00;99405.81;5075892;28;20374;-57
2023/04/22 04:01:46;;;;;;;;;;;;;;;10.63;100.00;99404.34;5089835;28;19924;-56
2023/04/22 04:04:11;;;;;;;;;;;;;;;10.56;100.00;99400.19;5091459;28;19957;-56
2023/04/22 04:06:36;;;;;;;;;;;;;;;10.52;100.00;99410.13;5110116;28;20058;-56
2023/04/22 04:09:02;;;;;;;;;;;;;;;10.52;100.00;99407.47;5094741;28;19931;-57
2023/04/22 04:11:28;;;;;;;;;;;;;;;10.50;100.00;99401.34;5089087;28;19920;-57
2023/04/22 04:13:53;;;;;;;;;;;;;;;10.47;100.00;99405.91;5087457;28;20359;-57
2023/04/22 04:16:18;;;;;;;;;;;;;;;10.40;100.00;99410.63;5088220;28;20328;-57
2023/04/22 04:18:44;;;;;;;;;;;;;;;10.33;100.00;99403.81;5088375;28;19966;-57
2023/04/22 04:21:09;;;;;;;;;;;;;;;10.28;100.00;99394.34;5089519;28;19912;-56
2023/04/22 04:23:34;;;;;;;;;;;;;;;10.25;100.00;99395.31;5089027;28;19919;-56
2023/04/22 04:26:01;;;;;;;;;;;;;;;10.25;100.00;99390.00;5089757;28;19922;-57
2023/04/22 04:28:29;;;;;;;;;;;;;;;10.21;100.00;99388.38;5090233;28;19916;-56
2023/04/22 04:30:54;;;;;;;;;;;;;;;10.24;100.00;99388.28;5088550;28;20336;-56
2023/04/22 04:33:19;;;;;;;;;;;;;;;10.24;100.00;99390.94;5088845;28;19960;-56
2023/04/22 04:35:46;;;;;;;;;;;;;;;10.25;100.00;99390.00;5088605;28;19957;-56
2023/04/22 04:38:13;;;;;;;;;;;;;;;10.30;100.00;99392.44;5086443;28;19973;-56
2023/04/22 04:40:38;;;;;;;;;;;;;;;10.25;100.00;99390.00;5085155;28;19916;-57
2023/04/22 04:43:07;;;;;;;;;;;;;;;10.20;100.00;99393.75;5093068;28;19926;-57
2023/04/22 04:45:32;;;;;;;;;;;;;;;10.13;100.00;99393.13;5095268;28;20027;-56
2023/04/22 04:47:59;;;;;;;;;;;;;;;10.13;100.00;99390.47;5093504;28;20353;-57
2023/04/22 04:50:26;;;;;;;;;;;;;;;10.13;100.00;99398.44;5093492;28;19915;-56
2023/04/22 04:52:52;;;;;;;;;;;;;;;10.10;100.00;99395.94;5092803;28;19915;-57
2023/04/22 04:55:17;;;;;;;;;;;;;;;10.12;100.00;99402.06;5093125;28;19920;-56
2023/04/22 04:57:43;;;;;;;;;;;;;;;10.15;100.00;99403.72;5093025;28;19927;-56
2023/04/22 05:00:09;;;;;;;;;;;;;;;10.12;100.00;99394.09;5091347;28;19920;-57
2023/04/22 05:02:35;;;;;;;;;;;;;;;10.13;100.00;99395.78;5093407;28;19927;-56
2023/04/22 05:05:00;;;;;;;;;;;;;;;10.17;100.00;99396.53;5103624;28;19916;-56
2023/04/22 05:07:25;;;;;;;;;;;;;;;10.20;100.00;99401.72;5093585;28;19923;-57
2023/04/22 05:09:50;;;;;;;;;;;;;;;10.25;100.00;99402.41;5092968;28;19969;-56
2023/04/22 05:12:16;;;;;;;;;;;;;;;10.30;100.00;99408.41;5092714;28;19958;-57
2023/04/22 05:14:41;;;;;;;;;;;;;;;10.42;100.00;99408.78;5093168;28;19923;-57
2023/04/22 05:17:07;;;;;;;;;;;;;;;10.57;100.00;99409.94;5093326;28;19920;-56
2023/04/22 05:19:32;;;;;;;;;;;;;;;10.76;100.00;99413.53;5093005;28;19923;-57
2023/04/22 05:21:57;;;;;;;;;;;;;;;10.97;100.00;99406.41;5091698;28;20028;-56
2023/04/22 05:24:23;;;;;;;;;;;;;;;11.18;100.00;99416.13;5093325;28;20435;-57
2023/04/22 05:26:48;;;;;;;;;;;;;;;11.38;100.00;99414.25;5092887;28;19916;-56
2023/04/22 05:29:14;;;;;;;;;;;;;;;11.57;100.00;99422.28;5092620;28;20014;-57
2023/04/22 05:31:39;;;;;;;;;;;;;;;11.75;100.00;99425.00;5092993;28;19954;-57
2023/04/22 05:34:04;;;;;;;;;;;;;;;11.92;100.00;99421.56;5094502;28;19916;-56
2023/04/22 05:36:30;;;;;;;;;;;;;;;12.11;100.00;99422.38;5092576;28;19916;-57
2023/04/22 05:38:56;;;;;;;;;;;;;;;12.85;100.00;99422.19;5091781;28;19923;-57
2023/04/22 05:41:21;;;;;;;;;;;;;;;13.61;97.21;99420.84;5092315;28;19920;-57
2023/04/22 05:43:46;;;;;;;;;;;;;;;13.55;91.85;99419.38;5092630;28;19913;-56
2023/04/22 05:46:11;;;;;;;;;;;;;;;13.27;90.27;99424.47;5091533;28;19923;-57
2023/04/22 05:48:37;;;;;;;;;;;;;;;13.00;90.21;99425.88;5091545;28;19924;-57
2023/04/22 05:51:02;;;;;;;;;;;;;;;12.89;91.36;99438.91;5091321;28;20306;-57
2023/04/22 05:53:27;;;;;;;;;;;;;;;13.16;94.00;99451.72;5090902;28;19923;-57
2023/04/22 05:55:53;;;;;;;;;;;;;;;13.91;93.71;99438.75;5089100;28;20420;-56
2023/04/22 05:58:18;;;;;;;;;;;;;;;14.76;90.51;99433.91;5092345;28;19958;-56
2023/04/22 06:00:43;;;;;;;;;;;;;;;15.35;86.35;99440.06;5090904;28;20383;-56
2023/04/22 06:03:08;;;;;;;;;;;;;;;15.44;81.61;99444.03;5091344;28;19912;-56
2023/04/22 06:05:34;;;;;;;;;;;;;;;15.57;80.90;99440.53;5099675;28;20413;-56
2023/04/22 06:07:59;;;;;;;;;;;;;;;15.51;80.40;99429.31;5091470;28;20015;-56
2023/04/22 06:10:24;;;;;;;;;;;;;;;15.46;79.63;99432.28;5090099;28;19927;-56
2023/04/22 06:12:49;;;;;;;;;;;;;;;15.49;80.43;99436.59;5091401;28;19916;-56
2023/04/22 06:15:15;;;;;;;;;;;;;;;15.63;78.83;99429.41;5090404;28;19923;-56
2023/04/22 06:17:40;;;;;;;;;;;;;;;16.03;77.54;99426.91;5092009;28;20291;-56
2023/04/22 06:20:06;;;;;;;;;;;;;;;16.17;77.60;99433.13;5091848;28;19912;-56
2023/04/22 06:22:31;;;;;;;;;;;;;;;16.24;76.91;99430.91;5091757;28;19924;-56
2023/04/22 06:24:56;;;;;;;;;;;;;;;16.21;76.22;99431.94;5091091;28;20026;-56
2023/04/22 06:27:21;;;;;;;;;;;;;;;16.18;76.32;99436.63;5091297;28;19926;-56
2023/04/22 06:29:47;;;;;;;;;;;;;;;16.44;75.69;99449.25;5090541;28;19965;-56
2023/04/22 06:32:12;;;;;;;;;;;;;;;16.70;73.05;99440.38;5081710;28;19924;-56
2023/04/22 06:34:37;;;;;;;;;;;;;;;16.62;74.44;99440.88;5091674;28;19916;-56
2023/04/22 06:37:03;;;;;;;;;;;;;;;16.77;74.51;99441.69;5072005;28;19925;-56
2023/04/22 06:39:28;;;;;;;;;;;;;;;16.94;73.17;99444.09;5090154;28;20303;-57
2023/04/22 06:41:53;;;;;;;;;;;;;;;17.04;72.32;99445.19;5090668;28;20089;-56
2023/04/22 06:44:18;;;;;;;;;;;;;;;17.30;71.62;99440.75;5090834;28;19922;-57
2023/04/22 06:46:45;;;;;;;;;;;;;;;17.55;70.59;99455.09;5099047;28;20069;-56
2023/04/22 06:49:10;;;;;;;;;;;;;;;17.80;69.32;99463.16;5089846;28;19920;-57
2023/04/22 06:51:35;;;;;;;;;;;;;;;18.08;69.56;99457.53;5090410;28;19923;-56
2023/04/22 06:54:01;;;;;;;;;;;;;;;18.38;68.65;99462.53;5089990;28;20017;-56
2023/04/22 06:56:26;;;;;;;;;;;;;;;18.63;67.74;99459.78;5090859;28;19920;-56
2023/04/22 06:58:51;;;;;;;;;;;;;;;18.97;65.60;99463.50;5088373;28;19971;-57
2023/04/22 07:01:16;;;;;;;;;;;;;;;19.13;62.07;99464.03;5091106;28;20004;-56
2023/04/22 07:03:42;;;;;;;;;;;;;;;19.52;60.13;99458.34;5089582;28;19927;-57
2023/04/22 07:06:07;;;;;;;;;;;;;;;19.72;58.28;99454.06;5090007;28;19923;-56
2023/04/22 07:08:32;;;;;;;;;;;;;;;19.41;56.70;99452.91;5090800;28;19935;-56
2023/04/22 07:10:58;;;;;;;;;;;;;;;19.52;54.99;99455.63;5091042;28;19962;-57
2023/04/22 07:13:23;;;;;;;;;;;;;;;19.43;54.70;99453.63;5090174;28;19920;-57
2023/04/22 07:15:48;;;;;;;;;;;;;;;19.47;53.87;99450.59;5093018;28;19947;-57
2023/04/22 07:18:14;;;;;;;;;;;;;;;19.77;54.66;99459.97;5088027;28;19916;-57
2023/04/22 07:20:39;;;;;;;;;;;;;;;20.01;53.64;99453.47;5089511;28;19912;-57
2023/04/22 07:23:04;;;;;;;;;;;;;;;19.77;53.50;99450.00;5088338;28;19920;-57
2023/04/22 07:25:29;;;;;;;;;;;;;;;20.00;53.43;99450.91;5088270;28;20452;-57
2023/04/22 07:27:55;;;;;;;;;;;;;;;20.39;53.74;99458.53;5090413;28;19923;-57
2023/04/22 07:30:20;;;;;;;;;;;;;;;20.60;51.74;99451.34;5089086;28;20283;-57
2023/04/22 07:32:45;;;;;;;;;;;;;;;20.86;50.15;99442.81;5078272;28;20358;-57
2023/04/22 07:35:10;;;;;;;;;;;;;;;20.60;50.30;99441.41;5092425;28;19912;-56
2023/04/22 07:37:36;;;;;;;;;;;;;;;21.25;49.85;99440.47;5089091;28;19916;-57
2023/04/22 07:40:01;;;;;;;;;;;;;;;21.76;49.10;99433.25;5088458;28;19920;-58
2023/04/22 07:42:26;;;;;;;;;;;;;;;21.41;48.12;99408.38;5089129;28;19924;-57
2023/04/22 07:44:52;;;;;;;;;;;;;;;22.11;47.25;99431.88;5090300;28;20399;-57
2023/04/22 07:47:17;;;;;;;;;;;;;;;21.92;47.15;99439.06;5089348;28;19931;-57
2023/04/22 07:49:44;;;;;;;;;;;;;;;22.14;46.72;99428.91;5090251;28;20289;-56
2023/04/22 07:52:09;;;;;;;;;;;;;;;22.72;47.12;99418.22;5090379;28;20007;-57
2023/04/22 07:54:35;;;;;;;;;;;;;;;23.28;46.11;99417.44;5089427;28;19994;-57
2023/04/22 07:57:00;;;;;;;;;;;;;;;23.60;45.80;99410.81;5089007;28;20023;-57
2023/04/22 07:59:25;;;;;;;;;;;;;;;23.57;45.09;99419.25;5089036;28;19927;-57
2023/04/22 08:01:51;;;;;;;;;;;;;;;23.60;45.00;99417.09;5087524;28;20374;-57
2023/04/22 08:04:16;;;;;;;;;;;;;;;23.48;44.66;99418.25;5088890;28;19916;-57
2023/04/22 08:06:41;;;;;;;;;;;;;;;23.39;45.01;99420.00;5087915;28;19920;-58
2023/04/22 08:09:07;;;;;;;;;;;;;;;23.41;45.19;99407.13;5088564;28;19947;-57
2023/04/22 08:11:32;;;;;;;;;;;;;;;23.18;45.83;99411.13;5088662;28;20496;-57
2023/04/22 08:13:57;;;;;;;;;;;;;;;23.36;46.14;99423.00;5088098;28;19920;-57
2023/04/22 08:16:23;;;;;;;;;;;;;;;23.57;45.82;99409.25;5092554;28;19928;-57
2023/04/22 08:18:48;;;;;;;;;;;;;;;23.15;46.40;99424.13;5092556;28;19926;-57
2023/04/22 08:21:13;;;;;;;;;;;;;;;23.03;46.92;99422.56;5094151;28;20010;-57
2023/04/22 08:23:38;;;;;;;;;;;;;;;23.46;48.26;99408.56;5093273;28;20355;-57
2023/04/22 08:26:04;;;;;;;;;;;;;;;23.59;46.63;99419.97;5093945;28;19916;-57
2023/04/22 08:28:29;;;;;;;;;;;;;;;23.83;45.97;99406.75;5094071;28;19922;-57
2023/04/22 08:30:54;;;;;;;;;;;;;;;24.29;44.34;99409.44;5093311;28;19919;-58
2023/04/22 08:33:20;;;;;;;;;;;;;;;24.44;43.05;99402.50;5094233;28;19972;-57
2023/04/22 08:35:45;;;;;;;;;;;;;;;24.99;42.85;99403.28;5094164;28;19916;-57
2023/04/22 08:38:11;;;;;;;;;;;;;;;25.40;41.15;99413.56;5093723;28;20276;-57
2023/04/22 08:40:39;;;;;;;;;;;;;;;25.36;40.84;99413.03;5093391;28;19958;-57
2023/04/22 08:43:04;;;;;;;;;;;;;;;25.27;41.27;99407.63;5092750;28;19942;-57
2023/04/22 08:45:30;;;;;;;;;;;;;;;25.68;41.52;99396.91;5092531;28;19920;-57
2023/04/22 08:47:56;;;;;;;;;;;;;;;25.47;40.50;99410.03;5092161;28;20097;-57
2023/04/22 08:50:21;;;;;;;;;;;;;;;25.64;39.50;99400.97;5092521;28;20003;-57
2023/04/22 08:52:46;;;;;;;;;;;;;;;25.57;39.41;99399.03;5091586;28;19922;-57
2023/04/22 08:55:11;;;;;;;;;;;;;;;25.83;40.27;99395.31;5091714;28;20390;-58
2023/04/22 08:57:37;;;;;;;;;;;;;;;25.96;39.00;99394.88;5092351;28;19927;-57
2023/04/22 09:00:03;;;;;;;;;;;;;;;26.13;38.49;99395.84;5093318;28;20066;-57
2023/04/22 09:02:31;;;;;;;;;;;;;;;25.50;38.84;99387.91;5092383;28;19916;-57
2023/04/22 09:04:57;;;;;;;;;;;;;;;24.81;41.01;99400.53;5100212;28;19912;-57
2023/04/22 09:07:23;;;;;;;;;;;;;;;24.83;41.60;99387.66;5104189;28;20302;-57
2023/04/22 09:09:49;;;;;;;;;;;;;;;24.95;41.44;99382.84;5091625;28;20485;-57
2023/04/22 09:12:16;;;;;;;;;;;;;;;25.21;40.52;99376.44;5092117;28;19912;-57
2023/04/22 09:14:42;;;;;;;;;;;;;;;25.82;39.41;99382.69;5094416;28;19916;-58
2023/04/22 09:17:07;;;;;;;;;;;;;;;26.33;38.31;99375.47;5092080;28;19927;-58
2023/04/22 09:19:32;;;;;;;;;;;;;;;27.01;39.64;99371.56;5091659;28;19923;-56
2023/04/22 09:21:58;;;;;;;;;;;;;;;26.99;37.42;99368.16;5092817;28;19916;-56
2023/04/22 09:24:23;;;;;;;;;;;;;;;27.49;38.38;99370.75;5091648;28;20272;-56
2023/04/22 09:26:49;;;;;;;;;;;;;;;27.89;35.72;99368.81;5094268;28;19916;-56
2023/04/22 09:29:15;;;;;;;;;;;;;;;28.43;37.62;99354.22;5092320;28;19962;-56
2023/04/22 09:31:40;;;;;;;;;;;;;;;29.03;35.00;99364.50;5092679;28;19962;-56
2023/04/22 09:34:05;;;;;;;;;;;;;;;29.19;35.65;99359.75;5090717;28;19920;-56
2023/04/22 09:36:39;;;;;;;;;;;;;;;29.41;35.21;99347.94;5091628;28;20300;-56
2023/04/22 09:39:07;;;;;;;;;;;;;;;29.22;34.19;99347.59;5090111;28;20292;-56
2023/04/22 09:41:37;;;;;;;;;;;;;;;29.14;35.56;99351.25;5092267;28;19912;-56
2023/04/22 09:44:04;;;;;;;;;;;;;;;29.31;35.60;99355.56;5090103;28;20389;-56
2023/04/22 09:46:30;;;;;;;;;;;;;;;29.67;35.10;99353.00;5091995;28;19919;-56
2023/04/22 09:48:57;;;;;;;;;;;;;;;29.45;34.50;99348.41;5090460;28;19924;-56
2023/04/22 09:51:23;;;;;;;;;;;;;;;29.68;34.83;99343.78;5091226;28;19916;-56
2023/04/22 09:54:07;;;;;;;;;;;;;;;29.97;34.81;99353.91;5080450;28;19973;-56
2023/04/22 09:56:49;;;;;;;;;;;;;;;30.23;35.65;99344.16;5091382;28;19923;-56
2023/04/22 09:59:21;;;;;;;;;;;;;;;30.14;35.24;99344.44;5091279;28;19920;-56
2023/04/22 10:01:47;;;;;;;;;;;;;;;30.44;36.04;99341.50;5092314;28;19915;-56
2023/04/22 10:04:14;;;;;;;;;;;;;;;30.79;34.73;99348.06;5092385;28;19920;-56
2023/04/22 10:06:39;;;;;;;;;;;;;;;31.10;33.30;99347.75;5111862;28;19920;-56
2023/04/22 10:09:05;;;;;;;;;;;;;;;30.69;33.98;99350.25;5106385;28;20426;-56
2023/04/22 10:11:31;;;;;;;;;;;;;;;30.79;34.27;99351.66;5090545;28;19985;-56
2023/04/22 10:13:57;;;;;;;;;;;;;;;30.72;33.55;99356.22;5090041;28;19915;-56
2023/04/22 10:16:23;;;;;;;;;;;;;;;30.60;34.37;99362.38;5089797;28;20402;-57
2023/04/22 10:18:49;;;;;;;;;;;;;;;29.86;33.22;99355.22;5087989;28;19953;-57
2023/04/22 10:21:16;;;;;;;;;;;;;;;29.95;34.77;99353.25;5070526;28;19924;-57
2023/04/22 10:23:45;;;;;;;;;;;;;;;29.57;35.17;99355.16;5070683;28;19970;-58
2023/04/22 10:26:11;;;;;;;;;;;;;;;28.93;34.90;99358.44;5087892;28;19926;-57
2023/04/22 10:28:41;;;;;;;;;;;;;;;28.79;35.42;99359.19;5091612;28;20002;-58
2023/04/22 10:31:18;;;;;;;;;;;;;;;28.62;34.94;99355.69;5088922;28;20614;-58
2023/04/22 10:33:44;;;;;;;;;;;;;;;28.43;36.64;99356.13;5094259;28;20268;-58
2023/04/22 10:36:14;;;;;;;;;;;;;;;28.04;35.33;99367.06;5091686;28;19965;-58
2023/04/22 10:38:39;;;;;;;;;;;;;;;27.88;35.80;99358.03;5077756;28;19912;-58
2023/04/22 10:41:05;;;;;;;;;;;;;;;28.40;33.51;99345.56;5085507;28;19966;-58
2023/04/22 10:43:46;;;;;;;;;;;;;;;28.31;33.88;99342.00;5070030;28;19923;-59
2023/04/22 10:46:36;;;;;;;;;;;;;;;28.13;33.25;99349.59;5084743;28;19930;-58
2023/04/22 10:49:11;;;;;;;;;;;;;;;28.27;33.24;99351.59;5070122;28;20332;-59
2023/04/22 10:51:46;;;;;;;;;;;;;;;28.67;31.82;99360.63;5076768;28;19919;-58
2023/04/22 10:54:27;;;;;;;;;;;;;;;28.57;31.78;99354.56;5076262;28;19917;-58
2023/04/22 10:57:02;;;;;;;;;;;;;;;27.72;32.08;99356.19;5070871;28;20426;-58
2023/04/22 10:59:27;;;;;;;;;;;;;;;27.03;33.91;99347.69;5089632;28;19920;-58
2023/04/22 11:01:53;;;;;;;;;;;;;;;26.82;34.20;99341.88;5090934;28;19920;-58
2023/04/22 11:04:19;;;;;;;;;;;;;;;26.48;35.05;99346.53;5090929;28;20565;-58
2023/04/22 11:06:44;;;;;;;;;;;;;;;26.19;34.66;99341.53;5089553;28;20412;-58
2023/04/22 11:09:11;;;;;;;;;;;;;;;25.71;35.44;99342.13;5090354;28;19920;-58
2023/04/22 11:11:36;;;;;;;;;;;;;;;25.69;36.12;99359.63;5089615;28;19963;-58
2023/04/22 11:14:02;;;;;;;;;;;;;;;25.95;35.83;99358.59;5084593;28;19995;-58
2023/04/22 11:16:27;;;;;;;;;;;;;;;26.17;36.26;99353.59;5090442;28;19927;-58
2023/04/22 11:18:54;;;;;;;;;;;;;;;26.86;35.95;99360.47;5081714;28;19973;-58
2023/04/22 11:21:20;;;;;;;;;;;;;;;27.60;35.43;99357.59;5070154;28;20454;-58
2023/04/22 11:23:50;;;;;;;;;;;;;;;28.45;34.71;99356.81;5092525;28;19920;-58
2023/04/22 11:26:15;;;;;;;;;;;;;;;29.32;32.59;99372.88;5099845;28;19916;-58
2023/04/22 11:28:45;;;;;;;;;;;;;;;29.20;30.90;99366.09;5083036;28;19943;-59
2023/04/22 11:31:10;;;;;;;;;;;;;;;28.91;31.92;99360.50;5091315;28;19916;-58
2023/04/22 11:33:37;;;;;;;;;;;;;;;28.71;31.11;99359.25;5086211;28;19919;-58
2023/04/22 11:36:02;;;;;;;;;;;;;;;28.58;33.24;99359.84;5089434;28;19920;-58
2023/04/22 11:38:28;;;;;;;;;;;;;;;28.47;33.61;99359.38;5086380;28;19924;-58
2023/04/22 11:40:54;;;;;;;;;;;;;;;28.16;32.87;99354.72;5087211;28;20229;-58
2023/04/22 11:43:19;;;;;;;;;;;;;;;28.19;32.46;99348.03;5083764;28;20391;-58
2023/04/22 11:45:45;;;;;;;;;;;;;;;29.22;33.69;99353.94;5074563;28;19920;-58
2023/04/22 11:48:10;;;;;;;;;;;;;;;30.24;31.86;99345.88;5088252;28;19920;-58
2023/04/22 11:50:37;;;;;;;;;;;;;;;30.63;30.07;99345.50;5087080;28;19916;-58
2023/04/22 11:53:19;;;;;;;;;;;;;;;30.30;30.12;99352.47;5061781;28;19916;-58
2023/04/22 11:55:46;;;;;;;;;;;;;;;30.31;30.23;99352.28;5067427;28;20335;-58
2023/04/22 11:58:12;;;;;;;;;;;;;;;30.30;30.02;99353.34;5073241;28;19931;-59
2023/04/22 12:00:37;;;;;;;;;;;;;;;30.01;29.23;99347.00;5087874;28;19924;-58
2023/04/22 12:03:06;;;;;;;;;;;;;;;30.01;30.16;99356.09;5088727;28;19916;-58
2023/04/22 12:05:41;;;;;;;;;;;;;;;29.39;29.16;99354.66;5088697;28;19966;-58
2023/04/22 12:08:08;;;;;;;;;;;;;;;28.62;31.11;99352.97;5086982;28;20708;-58
2023/04/22 12:10:38;;;;;;;;;;;;;;;28.13;32.16;99349.59;5086498;28;20006;-58
2023/04/22 12:13:03;;;;;;;;;;;;;;;28.03;32.25;99357.16;5087331;28;20022;-58
2023/04/22 12:15:36;;;;;;;;;;;;;;;28.16;31.55;99338.31;5087977;28;20057;-58
2023/04/22 12:18:01;;;;;;;;;;;;;;;28.82;30.38;99325.97;5088040;28;19989;-58
2023/04/22 12:20:31;;;;;;;;;;;;;;;29.41;31.80;99331.50;5086964;28;20379;-58
2023/04/22 12:22:56;;;;;;;;;;;;;;;30.19;30.17;99329.09;5088070;28;19947;-58
2023/04/22 12:25:21;;;;;;;;;;;;;;;31.18;29.09;99331.13;5085654;28;19978;-58
2023/04/22 12:27:47;;;;;;;;;;;;;;;30.97;27.75;99336.63;5088237;28;19916;-59
2023/04/22 12:30:12;;;;;;;;;;;;;;;31.37;28.06;99333.25;5079894;28;19973;-57
2023/04/22 12:32:38;;;;;;;;;;;;;;;31.66;27.26;99338.53;5083549;28;20377;-58
2023/04/22 12:35:03;;;;;;;;;;;;;;;31.84;26.24;99333.38;5084319;28;20383;-58
2023/04/22 12:37:28;;;;;;;;;;;;;;;31.89;28.68;99334.50;5086553;28;19924;-58